Time;durP1;ratioP1;P1;durP2;ratioP2;P2;SDS_P1;SDS_P2;PMS_P1;PMS_P2;Temp;Humidity;BMP_temperature;BMP_pressure;BME280_temperature;BME280_humidity;BME280_pressure;Samples;Min_cycle;Max_cycle;Signal;HPM_P1;HPM_P2
2023/03/27 00:00:11;;;;;;;7.40;5.40;;;;;;;2.95;76.59;96223.84;110599;1242;69853;-72
2023/03/27 00:03:01;;;;;;;6.20;4.70;;;;;;;2.98;76.78;96218.66;110598;1242;69080;-73
2023/03/27 00:05:31;;;;;;;6.20;4.40;;;;;;;3.02;77.71;96213.25;110700;1240;69170;-73
2023/03/27 00:08:00;;;;;;;7.60;4.90;;;;;;;3.05;78.43;96206.86;110455;1241;58937;-72
2023/03/27 00:10:30;;;;;;;4.10;3.70;;;;;;;3.08;78.28;96196.38;110550;1240;59256;-73
2023/03/27 00:13:02;;;;;;;6.10;3.70;;;;;;;3.09;77.36;96196.68;110746;1242;70429;-73
2023/03/27 00:15:36;;;;;;;4.70;4.00;;;;;;;3.09;76.68;96189.43;110631;1242;68474;-73
2023/03/27 00:18:08;;;;;;;5.90;4.30;;;;;;;3.10;76.40;96186.43;110510;1240;68310;-72
2023/03/27 00:20:39;;;;;;;5.50;4.00;;;;;;;3.11;76.75;96185.32;110160;1242;58935;-72
2023/03/27 00:23:11;;;;;;;4.60;3.50;;;;;;;3.10;76.61;96180.98;110199;1244;58821;-72
2023/03/27 00:25:43;;;;;;;5.60;3.90;;;;;;;3.09;76.35;96180.30;110167;1242;70957;-72
2023/03/27 00:28:13;;;;;;;5.60;3.50;;;;;;;3.09;75.60;96183.56;110218;1238;69226;-71
2023/03/27 00:30:43;;;;;;;5.10;4.10;;;;;;;3.11;76.53;96180.36;110498;1241;68523;-71
2023/03/27 00:33:13;;;;;;;5.90;4.50;;;;;;;3.15;78.52;96182.88;110666;1242;58969;-72
2023/03/27 00:35:47;;;;;;;4.50;3.90;;;;;;;3.16;79.23;96176.80;110804;1240;58931;-72
2023/03/27 00:38:19;;;;;;;6.40;4.20;;;;;;;3.13;79.78;96171.30;110637;1238;70101;-72
2023/03/27 00:40:54;;;;;;;6.80;4.20;;;;;;;3.09;79.75;96163.94;110646;1240;68332;-72
2023/03/27 00:43:35;;;;;;;5.00;4.10;;;;;;;3.05;79.64;96162.80;110588;1239;68227;-72
2023/03/27 00:46:26;;;;;;;5.00;3.60;;;;;;;3.02;80.33;96156.82;110629;1241;58925;-71
2023/03/27 00:49:00;;;;;;;7.40;4.20;;;;;;;2.99;80.11;96154.56;110610;1241;58869;-72
2023/03/27 00:51:33;;;;;;;5.80;4.00;;;;;;;2.95;79.03;96153.60;110674;1242;69821;-72
2023/03/27 00:54:05;;;;;;;5.40;4.10;;;;;;;2.92;77.95;96150.20;110318;1242;68147;-72
2023/03/27 00:56:37;;;;;;;4.00;3.40;;;;;;;2.92;79.09;96148.52;110375;1241;68538;-72
2023/03/27 00:59:15;;;;;;;4.30;3.00;;;;;;;2.90;78.53;96142.95;110289;1240;58951;-70
2023/03/27 01:01:46;;;;;;;3.50;2.90;;;;;;;2.86;77.80;96135.61;110230;1241;58891;-72
2023/03/27 01:04:20;;;;;;;5.40;3.30;;;;;;;2.84;78.89;96125.61;110384;1238;70662;-72
2023/03/27 01:06:55;;;;;;;5.30;3.40;;;;;;;2.82;77.90;96110.04;110418;1241;68302;-73
2023/03/27 01:09:25;;;;;;;4.20;3.20;;;;;;;2.84;78.73;96108.54;110472;1241;68542;-71
2023/03/27 01:12:20;;;;;;;4.50;3.20;;;;;;;2.86;80.77;96104.14;110283;1238;59361;-71
2023/03/27 01:14:58;;;;;;;5.60;3.60;;;;;;;2.84;80.95;96098.95;110258;1239;59022;-71
2023/03/27 01:17:46;;;;;;;5.20;3.50;;;;;;;2.82;80.09;96086.66;110100;1244;69717;-72
2023/03/27 01:20:41;;;;;;;5.60;3.80;;;;;;;2.84;81.07;96080.03;110136;1243;68500;-71
2023/03/27 01:23:14;;;;;;;4.70;3.50;;;;;;;2.84;80.63;96075.86;110353;1241;68354;-72
2023/03/27 01:26:27;;;;;;;4.10;3.20;;;;;;;2.85;81.11;96072.20;110227;1241;58941;-72
2023/03/27 01:29:21;;;;;;;;;;;;;;;2.83;80.36;96062.71;110169;1242;59439;-72
2023/03/27 01:32:06;;;;;;;5.40;3.60;;;;;;;2.83;79.76;96057.34;110135;1243;70642;-72
2023/03/27 01:35:11;;;;;;;4.40;3.20;;;;;;;2.89;80.75;96051.11;110190;1240;69097;-71
2023/03/27 01:38:14;;;;;;;4.30;3.20;;;;;;;2.92;81.05;96043.50;110151;1244;69114;-71
2023/03/27 01:41:05;;;;;;;4.20;3.20;;;;;;;2.94;79.39;96031.98;110094;1240;58964;-71
2023/03/27 01:43:49;;;;;;;4.90;3.00;;;;;;;3.01;78.53;96021.41;109808;1246;58895;-71
2023/03/27 01:46:40;;;;;;;4.50;3.20;;;;;;;3.10;78.70;96015.17;110588;1242;69827;-72
2023/03/27 01:49:38;;;;;;;4.60;2.80;;;;;;;3.15;78.07;96006.73;110396;1242;68338;-72
2023/03/27 01:52:18;;;;;;;3.40;3.00;;;;;;;3.21;77.71;95998.42;110109;1244;69159;-73
2023/03/27 01:54:57;;;;;;;4.40;2.80;;;;;;;3.27;77.30;95986.64;110112;1240;59167;-72
2023/03/27 01:57:33;;;;;;;3.00;2.70;;;;;;;3.38;77.56;95980.96;110144;1242;58879;-72
2023/03/27 02:00:16;;;;;;;3.20;2.50;;;;;;;3.46;77.69;95978.31;110412;1242;69793;-71
2023/03/27 02:02:58;;;;;;;3.40;2.40;;;;;;;3.55;78.11;95977.34;110271;1240;69076;-71
2023/03/27 02:05:35;;;;;;;3.40;2.50;;;;;;;3.63;78.13;95974.95;110174;1241;68527;-72
2023/03/27 02:08:13;;;;;;;3.40;2.70;;;;;;;3.73;77.71;95979.23;110142;1243;58896;-72
2023/03/27 02:10:49;;;;;;;4.00;2.90;;;;;;;3.84;76.98;95976.78;110643;1241;58859;-71
2023/03/27 02:13:30;;;;;;;4.40;2.60;;;;;;;3.95;76.87;95978.96;110541;1238;69849;-72
2023/03/27 02:16:02;;;;;;;3.40;2.40;;;;;;;4.07;76.46;95981.90;110362;1239;69192;-72
2023/03/27 02:18:40;;;;;;;4.40;2.50;;;;;;;4.18;75.89;95982.55;110649;1240;69076;-73
2023/03/27 02:21:10;;;;;;;3.00;2.30;;;;;;;4.29;75.53;95986.73;110178;1245;58893;-72
2023/03/27 02:23:42;;;;;;;4.00;2.30;;;;;;;4.39;75.00;95992.63;110178;1242;58884;-72
2023/03/27 02:26:14;;;;;;;3.20;2.20;;;;;;;4.47;74.51;95993.59;110337;1242;70550;-72
2023/03/27 02:29:05;;;;;;;2.90;2.10;;;;;;;4.54;74.53;95984.61;110255;1238;69218;-71
2023/03/27 02:32:16;;;;;;;6.30;2.80;;;;;;;4.60;74.46;95976.93;110161;1244;68586;-72
2023/03/27 02:35:11;;;;;;;3.80;2.20;;;;;;;4.66;74.13;95973.80;110311;1242;59208;-72
2023/03/27 02:37:56;;;;;;;4.00;2.40;;;;;;;4.68;74.34;95969.52;110415;1242;58943;-72
2023/03/27 02:41:02;;;;;;;3.00;1.70;;;;;;;4.74;73.61;95965.99;110388;1240;70565;-73
2023/03/27 02:44:06;;;;;;;2.90;2.00;;;;;;;4.81;73.67;95965.64;110023;1242;68136;-72
2023/03/27 02:47:15;;;;;;;2.70;2.20;;;;;;;4.86;73.58;95962.16;109776;1244;69400;-72
2023/03/27 02:50:00;;;;;;;4.10;2.40;;;;;;;4.93;72.99;95955.10;109792;1245;58897;-72
2023/03/27 02:52:36;;;;;;;2.90;2.40;;;;;;;4.98;73.31;95950.20;110029;1242;58870;-72
2023/03/27 02:55:23;;;;;;;2.70;2.30;;;;;;;5.00;73.38;95939.33;109751;1244;71198;-72
2023/03/27 02:57:58;;;;;;;5.50;2.40;;;;;;;5.04;72.73;95930.08;109906;1246;69221;-72
2023/03/27 03:00:46;;;;;;;2.90;2.10;;;;;;;5.11;72.28;95919.39;109822;1244;68985;-73
2023/03/27 03:04:11;;;;;;;3.40;2.20;;;;;;;5.18;72.42;95908.55;109802;1243;59739;-71
2023/03/27 03:07:05;;;;;;;3.70;2.40;;;;;;;5.24;74.62;95895.94;109938;1243;59649;-72
2023/03/27 03:09:37;;;;;;;3.40;2.50;;;;;;;5.28;73.51;95887.02;109885;1245;70646;-72
2023/03/27 03:12:09;;;;;;;3.00;2.20;;;;;;;5.32;72.68;95882.95;109992;1244;68610;-72
2023/03/27 03:14:44;;;;;;;4.00;2.40;;;;;;;5.35;72.00;95875.56;110029;1244;68554;-71
2023/03/27 03:17:16;;;;;;;3.00;2.00;;;;;;;5.42;71.38;95863.31;110143;1243;59735;-72
2023/03/27 03:19:48;;;;;;;3.30;2.10;;;;;;;5.48;71.08;95860.96;109945;1243;59700;-72
2023/03/27 03:22:17;;;;;;;3.40;2.40;;;;;;;5.54;70.68;95856.67;110260;1243;70342;-72
2023/03/27 03:24:47;;;;;;;4.60;2.20;;;;;;;5.59;70.46;95845.88;109852;1244;69483;-72
2023/03/27 03:27:21;;;;;;;4.30;2.70;;;;;;;5.64;70.38;95842.25;109834;1244;68537;-72
2023/03/27 03:29:59;;;;;;;3.50;2.20;;;;;;;5.66;70.36;95840.73;110116;1244;59758;-72
2023/03/27 03:32:30;;;;;;;4.80;2.60;;;;;;;5.67;70.33;95847.27;110048;1244;59751;-71
2023/03/27 03:35:01;;;;;;;3.50;2.40;;;;;;;5.68;70.65;95847.16;110024;1242;71393;-71
2023/03/27 03:37:37;;;;;;;4.10;2.70;;;;;;;5.68;70.48;95843.56;110011;1245;69780;-71
2023/03/27 03:40:13;;;;;;;3.40;2.50;;;;;;;5.66;70.77;95844.51;110201;1244;69254;-72
2023/03/27 03:42:50;;;;;;;4.30;3.40;;;;;;;5.64;70.63;95838.84;110160;1242;59738;-72
2023/03/27 03:45:24;;;;;;;3.10;2.30;;;;;;;5.62;70.64;95832.21;110275;1244;59798;-71
2023/03/27 03:47:54;;;;;;;3.20;2.40;;;;;;;5.60;70.39;95827.99;110418;1238;71729;-71
2023/03/27 03:50:24;;;;;;;3.60;2.70;;;;;;;5.62;70.13;95828.52;110253;1238;68580;-72
2023/03/27 03:52:54;;;;;;;5.30;3.10;;;;;;;5.66;69.81;95833.64;110291;1242;69471;-71
2023/03/27 03:55:24;;;;;;;5.30;3.60;;;;;;;5.70;69.85;95826.81;110226;1246;59748;-74
2023/03/27 03:57:54;;;;;;;4.50;3.00;;;;;;;5.69;69.77;95824.98;110148;1242;59732;-72
2023/03/27 04:00:27;;;;;;;3.50;2.50;;;;;;;5.67;69.75;95825.77;110137;1242;72094;-72
2023/03/27 04:02:57;;;;;;;3.80;2.60;;;;;;;5.64;69.70;95823.77;110215;1244;69236;-72
2023/03/27 04:05:26;;;;;;;4.30;2.60;;;;;;;5.61;69.54;95822.59;110192;1244;69868;-72
2023/03/27 04:08:01;;;;;;;3.30;2.10;;;;;;;5.59;69.14;95815.36;110525;1242;59630;-72
2023/03/27 04:10:49;;;;;;;3.30;2.10;;;;;;;5.64;68.86;95812.89;110229;1240;59679;-72
2023/03/27 04:13:38;;;;;;;2.60;2.10;;;;;;;5.68;69.04;95807.57;110106;1242;71675;-72
2023/03/27 04:16:18;;;;;;;3.80;2.00;;;;;;;5.72;68.37;95807.27;110162;1243;69102;-72
2023/03/27 04:18:53;;;;;;;2.90;2.00;;;;;;;5.76;68.48;95808.86;110142;1241;69659;-72
2023/03/27 04:21:25;;;;;;;4.10;2.30;;;;;;;5.75;68.65;95807.33;110363;1243;59735;-71
2023/03/27 04:24:01;;;;;;;4.70;2.80;;;;;;;5.72;70.59;95801.94;110279;1238;59670;-72
2023/03/27 04:26:51;;;;;;;4.00;2.40;;;;;;;5.65;70.50;95798.10;110294;1242;71880;-72
2023/03/27 04:29:30;;;;;;;3.80;2.30;;;;;;;5.61;69.83;95787.34;110460;1240;69877;-72
2023/03/27 04:32:00;;;;;;;3.90;2.40;;;;;;;5.59;70.04;95788.56;110514;1241;69890;-72
2023/03/27 04:34:50;;;;;;;3.60;2.60;;;;;;;5.57;70.53;95788.38;109949;1241;59774;-72
2023/03/27 04:37:23;;;;;;;5.10;2.70;;;;;;;5.55;70.72;95792.16;110296;1241;59669;-71
2023/03/27 04:40:13;;;;;;;2.90;2.40;;;;;;;5.53;70.59;95794.37;110284;1243;72020;-71
2023/03/27 04:42:43;;;;;;;2.80;1.90;;;;;;;5.52;70.85;95793.25;110124;1244;68525;-72
2023/03/27 04:45:19;;;;;;;3.10;2.30;;;;;;;5.53;69.58;95790.90;110211;1242;69235;-72
2023/03/27 04:47:49;;;;;;;2.60;1.90;;;;;;;5.56;69.28;95796.58;110275;1240;59716;-71
2023/03/27 04:50:19;;;;;;;3.10;2.20;;;;;;;5.61;68.99;95799.29;110246;1242;59739;-72
2023/03/27 04:52:50;;;;;;;3.60;3.10;;;;;;;5.68;68.65;95799.47;110288;1241;71898;-71
2023/03/27 04:55:24;;;;;;;3.20;2.40;;;;;;;5.75;69.50;95799.39;110208;1242;68726;-72
2023/03/27 04:57:56;;;;;;;3.10;2.50;;;;;;;5.82;69.21;95793.11;110134;1244;68556;-71
2023/03/27 05:00:26;;;;;;;3.60;2.50;;;;;;;5.90;68.76;95799.12;110352;1240;59665;-72
2023/03/27 05:03:18;;;;;;;2.60;1.80;;;;;;;5.98;67.49;95795.34;110314;1241;59687;-72
2023/03/27 05:06:17;;;;;;;3.60;2.30;;;;;;;6.12;67.16;95790.08;110102;1240;71796;-73
2023/03/27 05:08:49;;;;;;;3.40;2.10;;;;;;;6.21;67.23;95781.38;110302;1241;69011;-72
2023/03/27 05:11:26;;;;;;;3.00;2.30;;;;;;;6.31;67.02;95776.42;110340;1241;69192;-71
2023/03/27 05:13:55;;;;;;;3.20;2.00;;;;;;;6.40;66.96;95779.34;110231;1243;59747;-72
2023/03/27 05:16:26;;;;;;;;;;;;;;;6.47;66.70;95776.98;110167;1243;59647;-71
2023/03/27 05:18:59;;;;;;;5.70;3.90;;;;;;;6.57;67.59;95768.35;110263;1242;72241;-71
2023/03/27 05:21:28;;;;;;;5.60;3.40;;;;;;;6.65;66.93;95770.48;110263;1249;69231;-71
2023/03/27 05:23:58;;;;;;;7.90;5.10;;;;;;;6.72;66.54;95770.26;110201;1245;69328;-71
2023/03/27 05:26:27;;;;;;;6.70;3.80;;;;;;;6.76;65.85;95775.66;110329;1240;59746;-72
2023/03/27 05:28:58;;;;;;;5.00;3.90;;;;;;;6.79;65.59;95779.91;110308;1243;59699;-72
2023/03/27 05:31:28;;;;;;;4.40;3.60;;;;;;;6.81;65.60;95782.34;110313;1238;71340;-71
2023/03/27 05:34:10;;;;;;;4.40;3.00;;;;;;;6.83;65.10;95775.20;110207;1242;70119;-72
2023/03/27 05:36:41;;;;;;;4.10;3.20;;;;;;;6.87;65.28;95775.61;110172;1244;69942;-72
2023/03/27 05:39:11;;;;;;;4.60;3.50;;;;;;;6.89;65.22;95774.41;110173;1243;59699;-72
2023/03/27 05:41:43;;;;;;;4.40;3.00;;;;;;;6.92;65.10;95775.04;110276;1241;59672;-72
2023/03/27 05:44:18;;;;;;;4.10;3.10;;;;;;;6.93;64.92;95763.84;110236;1242;71977;-71
2023/03/27 05:46:47;;;;;;;4.60;3.60;;;;;;;6.93;64.64;95756.06;110315;1242;69442;-70
2023/03/27 05:49:23;;;;;;;5.40;4.40;;;;;;;6.87;64.73;95749.91;110485;1241;69920;-70
2023/03/27 05:51:57;;;;;;;9.90;5.20;;;;;;;6.83;65.86;95749.08;110407;1241;59689;-70
2023/03/27 05:54:25;;;;;;;;;;;;;;;6.80;65.65;95742.74;110474;1241;59708;-72
2023/03/27 05:57:08;;;;;;;7.70;5.60;;;;;;;6.76;66.46;95747.73;110613;1238;71585;-71
2023/03/27 05:59:38;;;;;;;;;;;;;;;6.76;66.69;95748.27;110526;1240;69565;-71
2023/03/27 06:02:17;;;;;;;8.60;5.40;;;;;;;6.76;66.75;95759.21;110192;1242;68763;-71
2023/03/27 06:05:03;;;;;;;11.20;6.90;;;;;;;6.77;65.99;95750.60;110132;1244;59732;-71
2023/03/27 06:07:39;;;;;;;7.00;4.60;;;;;;;6.80;65.95;95752.66;110164;1244;59667;-69
2023/03/27 06:10:13;;;;;;;4.80;3.80;;;;;;;6.83;65.47;95747.21;110196;1243;71466;-71
2023/03/27 06:13:07;;;;;;;4.20;3.60;;;;;;;6.85;65.54;95743.20;110453;1242;70166;-71
2023/03/27 06:15:46;;;;;;;6.10;4.10;;;;;;;6.89;65.17;95739.94;110343;1241;68687;-70
2023/03/27 06:18:19;;;;;;;6.20;3.60;;;;;;;6.93;65.06;95721.91;110284;1241;60193;-71
2023/03/27 06:20:49;;;;;;;3.80;2.70;;;;;;;6.99;64.72;95715.02;110203;1242;59726;-71
2023/03/27 06:23:18;;;;;;;6.20;4.40;;;;;;;7.06;64.41;95694.95;110315;1243;71400;-71
2023/03/27 06:25:47;;;;;;;6.70;3.20;;;;;;;7.18;62.61;95693.27;110082;1244;69829;-71
2023/03/27 06:28:16;;;;;;;4.00;3.00;;;;;;;7.36;59.76;95701.55;110228;1241;69312;-71
2023/03/27 06:30:46;;;;;;;3.40;2.20;;;;;;;7.53;59.98;95685.57;109996;1240;59739;-70
2023/03/27 06:33:35;;;;;;;4.20;2.30;;;;;;;7.72;58.83;95669.16;110252;1241;59722;-69
2023/03/27 06:36:07;;;;;;;3.70;2.60;;;;;;;7.87;57.71;95661.55;110311;1242;71398;-68
2023/03/27 06:38:37;;;;;;;3.40;2.50;;;;;;;8.00;57.65;95654.70;110180;1242;68227;-69
2023/03/27 06:41:06;;;;;;;2.80;2.20;;;;;;;8.09;57.30;95658.86;109971;1244;69859;-70
2023/03/27 06:43:52;;;;;;;3.60;2.40;;;;;;;8.19;56.98;95651.23;110206;1244;59666;-68
2023/03/27 06:46:32;;;;;;;3.50;2.30;;;;;;;8.26;56.75;95658.20;110251;1241;59677;-68
2023/03/27 06:49:39;;;;;;;3.60;2.30;;;;;;;8.32;56.53;95651.25;109518;1245;548734;-68
2023/03/27 06:52:15;;;;;;;4.40;2.70;;;;;;;8.36;56.77;95648.96;110085;1243;69009;-68
2023/03/27 06:54:45;;;;;;;2.90;2.20;;;;;;;8.42;57.42;95646.13;110113;1244;69889;-68
2023/03/27 06:57:14;;;;;;;3.80;2.80;;;;;;;8.49;56.53;95650.43;110453;1243;59750;-69
2023/03/27 06:59:53;;;;;;;4.80;2.40;;;;;;;8.54;56.58;95670.72;110373;1241;59649;-69
2023/03/27 07:02:24;;;;;;;2.70;2.00;;;;;;;8.59;56.56;95677.73;110231;1243;71756;-68
2023/03/27 07:04:56;;;;;;;4.20;2.60;;;;;;;8.62;55.54;95694.66;110144;1242;69823;-69
2023/03/27 07:07:42;;;;;;;6.40;3.10;;;;;;;8.68;56.74;95721.72;110218;1243;69692;-70
2023/03/27 07:10:12;;;;;;;6.80;3.30;;;;;;;8.56;57.56;95727.34;110089;1246;59672;-70
2023/03/27 07:12:46;;;;;;;4.50;2.90;;;;;;;8.50;57.26;95726.68;110260;1241;59743;-69
2023/03/27 07:15:17;;;;;;;5.10;3.10;;;;;;;8.46;57.11;95727.78;110148;1241;71266;-69
2023/03/27 07:17:56;;;;;;;;;;;;;;;8.45;57.02;95726.11;110267;1240;69517;-69
2023/03/27 07:20:27;;;;;;;5.30;2.70;;;;;;;8.44;57.25;95718.45;110361;1240;69867;-69
2023/03/27 07:22:58;;;;;;;4.30;2.30;;;;;;;8.46;56.63;95719.73;110321;1247;59724;-70
2023/03/27 07:26:00;;;;;;;4.70;3.00;;;;;;;8.52;56.03;95726.86;110457;1243;59666;-70
2023/03/27 07:28:50;;;;;;;4.70;2.80;;;;;;;8.54;56.36;95727.68;110429;1242;72955;-70
2023/03/27 07:31:20;;;;;;;6.30;2.80;;;;;;;8.55;57.12;95726.90;110267;1245;68483;-70
2023/03/27 07:34:10;;;;;;;4.70;3.10;;;;;;;8.53;58.56;95720.31;110151;1244;67825;-69
2023/03/27 07:36:58;;;;;;;5.20;3.40;;;;;;;8.48;59.77;95694.08;110208;1242;59744;-70
2023/03/27 07:39:27;;;;;;;4.40;3.00;;;;;;;8.43;59.90;95681.83;110299;1248;59635;-70
2023/03/27 07:41:57;;;;;;;5.90;3.50;;;;;;;8.39;60.86;95693.69;110238;1241;71401;-70
2023/03/27 07:44:54;;;;;;;5.90;3.90;;;;;;;8.30;61.58;95691.52;110127;1244;69217;-68
2023/03/27 07:47:24;;;;;;;5.80;3.80;;;;;;;8.22;63.44;95683.58;110264;1241;68405;-68
2023/03/27 07:49:54;;;;;;;4.40;3.00;;;;;;;8.18;62.58;95681.18;110252;1241;59706;-69
2023/03/27 07:52:23;;;;;;;4.30;3.50;;;;;;;8.13;63.29;95682.63;110318;1241;59624;-69
2023/03/27 07:54:59;;;;;;;4.70;2.80;;;;;;;8.07;63.33;95679.37;110297;1242;71381;-69
2023/03/27 07:57:39;;;;;;;5.00;3.60;;;;;;;8.02;64.68;95677.23;110330;1241;69792;-70
2023/03/27 08:00:31;;;;;;;6.00;3.50;;;;;;;7.96;65.34;95675.33;110363;1244;69301;-70
2023/03/27 08:03:08;;;;;;;7.40;4.90;;;;;;;7.92;68.33;95669.55;110340;1242;59671;-69
2023/03/27 08:05:42;;;;;;;9.50;8.60;;;;;;;7.90;69.29;95663.01;110387;1242;59649;-70
2023/03/27 08:08:14;;;;;;;8.70;7.80;;;;;;;7.82;72.22;95647.73;110366;1240;71879;-69
2023/03/27 08:10:59;;;;;;;8.10;6.70;;;;;;;7.80;72.70;95638.06;110262;1249;68605;-70
2023/03/27 08:13:32;;;;;;;13.20;7.50;;;;;;;7.84;72.67;95627.83;110276;1245;68813;-70
2023/03/27 08:16:13;;;;;;;;;;;;;;;7.90;71.54;95620.73;110181;1244;59737;-69
2023/03/27 08:18:45;;;;;;;12.60;9.10;;;;;;;7.91;70.53;95608.98;110320;1242;59753;-69
2023/03/27 08:21:14;;;;;;;9.40;7.00;;;;;;;7.93;69.27;95604.13;110141;1246;71874;-68
2023/03/27 08:23:44;;;;;;;6.80;5.20;;;;;;;7.97;69.61;95599.98;110155;1245;69324;-69
2023/03/27 08:26:42;;;;;;;8.10;5.30;;;;;;;8.02;68.77;95605.04;110121;1243;69110;-69
2023/03/27 08:29:12;;;;;;;8.40;5.30;;;;;;;8.09;68.23;95609.55;110332;1244;60025;-69
2023/03/27 08:31:43;;;;;;;7.20;5.50;;;;;;;8.20;68.18;95607.03;110257;1243;59670;-69
2023/03/27 08:34:11;;;;;;;9.00;7.80;;;;;;;8.32;67.85;95609.58;110132;1247;71962;-69
2023/03/27 08:36:45;;;;;;;10.00;7.90;;;;;;;8.42;67.70;95609.19;110132;1239;69236;-69
2023/03/27 08:39:15;;;;;;;12.00;10.80;;;;;;;8.51;67.65;95609.45;110140;1241;69092;-70
2023/03/27 08:41:59;;;;;;;12.10;11.00;;;;;;;8.61;67.79;95602.94;110162;1245;59660;-69
2023/03/27 08:44:36;;;;;;;9.60;8.60;;;;;;;8.72;68.30;95592.39;110222;1242;59740;-69
2023/03/27 08:47:14;;;;;;;5.90;5.00;;;;;;;8.85;67.17;95594.09;110101;1244;71438;-69
2023/03/27 08:50:01;;;;;;;6.90;4.40;;;;;;;8.99;65.77;95593.59;110234;1241;69098;-69
2023/03/27 08:52:45;;;;;;;5.70;4.90;;;;;;;9.11;64.95;95586.00;110257;1248;69921;-71
2023/03/27 08:55:45;;;;;;;6.80;5.40;;;;;;;9.23;64.62;95577.78;110256;1240;60062;-71
2023/03/27 08:58:20;;;;;;;8.10;5.20;;;;;;;9.33;64.35;95571.75;110269;1244;59694;-69
2023/03/27 09:01:32;;;;;;;6.30;4.90;;;;;;;9.39;63.75;95573.27;110194;1242;71353;-70
2023/03/27 09:04:19;;;;;;;5.20;4.00;;;;;;;9.46;62.17;95567.70;109905;1244;68579;-70
2023/03/27 09:06:58;;;;;;;7.00;4.90;;;;;;;9.46;61.29;95566.43;110083;1245;69257;-70
2023/03/27 09:09:58;;;;;;;8.70;4.90;;;;;;;9.44;62.41;95562.64;110219;1242;59674;-68
2023/03/27 09:13:15;;;;;;;6.30;4.20;;;;;;;9.47;61.47;95555.91;110248;1244;59678;-70
2023/03/27 09:16:02;;;;;;;5.60;3.40;;;;;;;9.51;60.30;95550.52;110168;1239;70937;-68
2023/03/27 09:18:58;;;;;;;5.80;3.70;;;;;;;9.52;60.54;95546.27;110259;1244;69228;-70
2023/03/27 09:21:50;;;;;;;4.30;3.20;;;;;;;9.54;59.97;95535.95;110251;1242;69296;-71
2023/03/27 09:24:40;;;;;;;4.30;3.10;;;;;;;9.56;60.28;95531.38;110291;1241;59741;-70
2023/03/27 09:27:43;;;;;;;5.60;3.20;;;;;;;9.61;59.70;95527.27;109993;1242;59631;-69
2023/03/27 09:30:38;;;;;;;4.80;3.20;;;;;;;9.63;59.86;95520.30;110305;1244;71167;-69
2023/03/27 09:33:12;;;;;;;5.70;3.80;;;;;;;9.65;59.83;95515.84;110287;1247;69787;-70
2023/03/27 09:35:43;;;;;;;9.90;6.50;;;;;;;9.66;60.09;95504.78;110160;1244;69186;-69
2023/03/27 09:38:18;;;;;;;9.20;7.10;;;;;;;9.68;60.46;95497.35;110187;1253;59763;-68
2023/03/27 09:40:53;;;;;;;9.20;6.50;;;;;;;9.70;60.15;95489.65;110321;1241;59669;-69
2023/03/27 09:43:54;;;;;;;6.90;4.40;;;;;;;9.72;60.37;95486.14;110118;1245;71432;-69
2023/03/27 09:46:26;;;;;;;;;;;;;;;9.77;60.05;95485.19;110263;1243;69014;-69
2023/03/27 09:49:13;;;;;;;5.10;3.50;;;;;;;9.77;60.36;95488.31;110166;1245;69281;-70
2023/03/27 09:51:48;;;;;;;4.20;3.50;;;;;;;9.78;61.01;95488.71;110121;1244;59744;-70
2023/03/27 09:54:30;;;;;;;6.20;3.00;;;;;;;9.83;60.93;95489.45;110164;1244;59679;-70
2023/03/27 09:57:09;;;;;;;5.10;3.00;;;;;;;9.87;60.47;95485.30;110260;1242;70635;-70
2023/03/27 10:00:00;;;;;;;4.10;2.90;;;;;;;9.93;60.45;95488.44;110284;1242;69436;-70
2023/03/27 10:02:30;;;;;;;2.60;2.10;;;;;;;9.97;60.07;95480.98;110134;1246;69887;-70
2023/03/27 10:05:26;;;;;;;2.50;2.00;;;;;;;10.04;59.18;95471.64;110328;1241;59746;-70
2023/03/27 10:07:57;;;;;;;2.60;2.40;;;;;;;10.11;59.37;95471.44;110131;1241;60185;-69
2023/03/27 10:10:31;;;;;;;2.90;2.00;;;;;;;10.17;59.64;95464.69;110296;1242;70940;-69
2023/03/27 10:13:10;;;;;;;3.20;2.10;;;;;;;10.26;59.21;95458.35;110206;1241;69028;-69
2023/03/27 10:15:44;;;;;;;3.50;2.10;;;;;;;10.34;58.91;95457.87;110101;1243;69062;-69
2023/03/27 10:18:28;;;;;;;2.80;2.10;;;;;;;10.40;58.38;95461.52;110224;1248;59754;-71
2023/03/27 10:21:10;;;;;;;2.10;1.70;;;;;;;10.49;56.68;95458.32;110313;1241;59661;-69
2023/03/27 10:23:42;;;;;;;3.50;2.50;;;;;;;10.56;56.83;95454.64;110167;1245;71395;-71
2023/03/27 10:26:24;;;;;;;4.10;2.40;;;;;;;10.61;56.64;95456.20;110073;1245;68220;-69
2023/03/27 10:29:00;;;;;;;3.20;1.70;;;;;;;10.67;56.59;95451.80;110165;1246;69874;-71
2023/03/27 10:31:51;;;;;;;3.20;1.80;;;;;;;10.73;56.28;95443.52;110230;1241;59729;-69
2023/03/27 10:34:56;;;;;;;2.70;2.00;;;;;;;10.77;56.39;95449.53;110121;1242;59700;-70
2023/03/27 10:37:33;;;;;;;2.30;1.80;;;;;;;10.80;56.25;95447.29;110223;1240;72116;-69
2023/03/27 10:40:23;;;;;;;3.20;2.10;;;;;;;10.84;56.44;95444.30;110258;1241;68838;-69
2023/03/27 10:43:03;;;;;;;2.70;1.90;;;;;;;10.87;56.26;95442.65;110214;1242;69580;-69
2023/03/27 10:46:03;;;;;;;2.60;1.80;;;;;;;10.92;55.41;95440.13;110419;1241;59745;-71
2023/03/27 10:49:09;;;;;;;2.40;1.80;;;;;;;10.93;55.19;95439.95;110281;1242;59834;-71
2023/03/27 10:52:08;;;;;;;4.00;2.10;;;;;;;10.96;55.13;95437.40;110319;1242;70217;-70
2023/03/27 10:55:00;;;;;;;4.10;1.90;;;;;;;10.98;54.52;95432.72;110208;1241;67706;-70
2023/03/27 10:57:33;;;;;;;3.10;1.90;;;;;;;11.01;54.54;95431.54;110410;1240;68265;-68
2023/03/27 11:00:21;;;;;;;2.50;1.80;;;;;;;11.05;54.32;95420.23;110501;1241;59740;-69
2023/03/27 11:03:26;;;;;;;4.50;2.50;;;;;;;11.09;54.01;95421.58;110102;1252;59675;-68
2023/03/27 11:06:02;;;;;;;2.70;2.10;;;;;;;11.13;54.10;95419.42;110147;1244;71994;-70
2023/03/27 11:08:57;;;;;;;2.80;2.10;;;;;;;11.17;54.21;95414.48;110343;1241;69871;-70
2023/03/27 11:11:39;;;;;;;3.30;2.30;;;;;;;11.23;53.72;95416.92;110267;1242;68520;-70
2023/03/27 11:14:17;;;;;;;3.90;2.00;;;;;;;11.29;53.44;95410.38;110191;1242;59761;-69
2023/03/27 11:16:54;;;;;;;3.70;2.40;;;;;;;11.32;53.58;95408.50;110274;1242;59692;-70
2023/03/27 11:19:51;;;;;;;3.00;1.90;;;;;;;11.39;53.12;95409.44;110214;1241;71957;-68
2023/03/27 11:22:43;;;;;;;3.10;2.20;;;;;;;11.46;53.14;95404.00;110240;1242;69822;-69
2023/03/27 11:25:40;;;;;;;3.50;2.20;;;;;;;11.57;52.65;95404.94;110266;1241;69285;-69
2023/03/27 11:28:34;;;;;;;2.90;1.80;;;;;;;11.70;51.41;95402.04;110254;1241;59727;-69
2023/03/27 11:31:14;;;;;;;3.00;2.00;;;;;;;11.95;51.64;95402.39;110152;1242;59729;-70
2023/03/27 11:34:00;;;;;;;3.70;2.00;;;;;;;12.23;51.24;95409.52;110221;1241;71477;-70
2023/03/27 11:36:33;;;;;;;3.20;2.00;;;;;;;12.51;49.22;95410.08;110293;1241;69262;-69
2023/03/27 11:39:34;;;;;;;3.60;1.90;;;;;;;12.77;48.81;95410.17;110315;1240;69237;-70
2023/03/27 11:42:16;;;;;;;3.00;1.90;;;;;;;13.01;47.28;95399.14;110218;1241;59694;-70
2023/03/27 11:44:47;;;;;;;2.60;1.70;;;;;;;13.18;47.53;95396.70;110357;1241;59708;-69
2023/03/27 11:47:48;;;;;;;2.80;2.00;;;;;;;13.27;45.70;95396.58;110183;1243;71914;-69
2023/03/27 11:50:32;;;;;;;2.60;1.60;;;;;;;13.28;44.73;95394.81;110205;1240;69221;-68
2023/03/27 11:53:31;;;;;;;2.40;1.90;;;;;;;13.24;45.44;95387.84;110246;1241;69692;-69
2023/03/27 11:56:51;;;;;;;2.90;1.70;;;;;;;13.22;45.82;95383.85;110173;1242;59660;-69
2023/03/27 11:59:54;;;;;;;3.40;2.30;;;;;;;13.19;45.06;95376.81;110176;1244;59638;-70
2023/03/27 12:02:32;;;;;;;3.30;1.90;;;;;;;13.23;45.26;95365.23;110157;1243;72337;-69
2023/03/27 12:05:14;;;;;;;3.40;2.20;;;;;;;13.27;45.67;95360.38;110167;1245;69798;-69
2023/03/27 12:08:05;;;;;;;2.80;2.30;;;;;;;13.33;45.59;95352.67;110145;1243;69108;-72
2023/03/27 12:10:38;;;;;;;3.70;2.30;;;;;;;13.35;45.14;95350.33;110304;1241;59655;-70
2023/03/27 12:13:33;;;;;;;3.60;2.20;;;;;;;13.39;44.36;95343.37;110137;1242;59628;-71
2023/03/27 12:16:44;;;;;;;2.50;1.90;;;;;;;13.38;45.24;95338.79;110099;1243;71532;-71
2023/03/27 12:19:41;;;;;;;2.80;2.20;;;;;;;13.46;45.28;95337.65;110155;1242;70095;-70
2023/03/27 12:22:43;;;;;;;4.10;2.60;;;;;;;13.52;44.63;95333.83;110179;1241;69283;-71
2023/03/27 12:25:44;;;;;;;4.40;2.60;;;;;;;13.53;44.83;95324.66;110266;1241;59655;-69
2023/03/27 12:29:18;;;;;;;8.30;3.40;;;;;;;13.59;44.29;95327.35;109983;1243;59675;-69
2023/03/27 12:32:20;;;;;;;4.00;2.60;;;;;;;13.66;44.92;95322.88;109829;1243;71928;-69
2023/03/27 12:34:52;;;;;;;4.00;3.00;;;;;;;13.70;44.72;95325.88;109930;1244;69771;-69
2023/03/27 12:37:29;;;;;;;3.10;2.10;;;;;;;13.71;44.83;95326.61;109977;1246;69278;-69